Aviation Digital Data Service (ADDS)

Output produced by METARs form (1632 UTC 16 June 2019)
found at http://www.aviationweather.gov/metar/data/
 
TAF TFFR 161000Z 1612/1712 08008KT 9999 SCT025 BKN060 
     TEMPO 1612/1618 4000 SHRA BKN020TCU